Manitowoc, Wisconsin
Current Conditions -  °F | °C
As of 5:56 AM on Thursday 29 Jan 2015 (Local Time) from KMTW Reporting Station
Haze Haze  
Wind Chill: 26°   Ceiling: 1800
Heat Index: 31°   Visibility: 5mi
Dew Point: 29°   Wind: 5mph
Humidity: 92%   Direction: 320°NW
Pressure: 29.76"   Gusts: NA
Location:  44.11°N, 87.66°W
Report Text: KMTW 291156Z AUTO 32004KT 5SM BR OVC018 M01/M02 A2976 RMK AO2 UPE26 SLP101 P0000 60003 7//// T10061017 10011 21006 55006 FZRANO
Loading
Personal Weather Stations






























Interactive Weather Map New forecast layout! Learn more

10-Day Weather Forecast

Advertisements
Track Severe Weather on mobile